»·PEaware :: N50212 KSBA-KSNA

N50212 :: KSBA-KSNA

FLIGHT INFORMATION

Flight Status: Arrived
Operator: Privately registered:
United States
More flights under this callsign
Pilot: Brad H. (9994)
Aircraft: PIPER PA-34 SENECA
(PA34)
More flights by this aircraft type
Origin: KSBA Santa Barbara Mun
United States
Destination: KSNA John Wayne-Orange Co
United States
More flights between these airports :: More routes between these airports
Route: +KWANG CMA VNY V186 BAYJY V363 POXKU V8 SLI
File this flight plan on PilotEdge
Remarks:
Altitude:
(Current/Filed)
5,000ft
Speed:
(Current/Filed)
140kts
Departed: 08-Jan-18 09:17 AM
Arrived: 08-Jan-18 10:13 AM
Distance/Time
Traveled:
108nm/0:56
Distance/Time
To Go:
Arrived

Flight Plot

Page will automatically refresh every two minutes.


Map Options




Map Legend


Flown Route
Filed Route
Departure Airport
Arrival Airport
Navaid (VOR, NDB)
Fix

Horizontal Profiles

Position Reports

Time Latitude Longitude Heading Altitude Ground
Speed
08-Jan-18 08:55 34.422674 -119.835587 340 11ft 0kts
08-Jan-18 08:56 34.422674 -119.835587 340 11ft 0kts
08-Jan-18 08:57 34.422674 -119.835587 340 11ft 0kts
08-Jan-18 08:58 34.422674 -119.835587 340 11ft 0kts
08-Jan-18 08:59 34.422674 -119.835587 340 11ft 0kts
08-Jan-18 09:00 34.422674 -119.835587 340 11ft 0kts
08-Jan-18 09:01 34.422674 -119.835587 340 11ft 0kts
08-Jan-18 09:02 34.422674 -119.835587 340 11ft 0kts
08-Jan-18 09:03 34.422674 -119.835587 340 11ft 0kts
08-Jan-18 09:04 34.422674 -119.835587 340 11ft 0kts
08-Jan-18 09:05 34.422674 -119.835587 340 11ft 0kts
08-Jan-18 09:06 34.422674 -119.835587 340 11ft 0kts
08-Jan-18 09:07 34.422674 -119.835587 340 11ft 0kts
08-Jan-18 09:08 34.422674 -119.835587 340 11ft 0kts
08-Jan-18 09:09 34.422674 -119.835587 340 11ft 0kts
08-Jan-18 09:10 34.422674 -119.835587 340 11ft 0kts
08-Jan-18 09:11 34.422674 -119.835587 340 11ft 0kts
08-Jan-18 09:12 34.422674 -119.835587 340 11ft 0kts
08-Jan-18 09:13 34.422674 -119.835587 340 11ft 0kts
08-Jan-18 09:14 34.422674 -119.835587 340 11ft 0kts
08-Jan-18 09:15 34.422696 -119.836334 275 11ft 0kts
08-Jan-18 09:16 34.423129 -119.837322 352 10ft 9kts
08-Jan-18 09:17 34.426587 -119.838324 344 9ft 13kts
08-Jan-18 09:18 34.430265 -119.839457 339 10ft 10kts
08-Jan-18 09:19 34.430389 -119.839660 282 10ft 0kts
08-Jan-18 09:20 34.430389 -119.839660 282 10ft 0kts
08-Jan-18 09:21 34.430389 -119.839660 282 10ft 0kts
08-Jan-18 09:22 34.430318 -119.840045 222 10ft 10kts
08-Jan-18 09:23 34.411303 -119.833758 162 532ft 120kts
08-Jan-18 09:24 34.377921 -119.820749 162 1453ft 131kts
08-Jan-18 09:25 34.342633 -119.806996 162 2358ft 135kts
08-Jan-18 09:26 34.333594 -119.765556 94 3248ft 137kts
08-Jan-18 09:27 34.329623 -119.719528 96 4148ft 138kts
08-Jan-18 09:28 34.324952 -119.671972 97 4852ft 150kts
08-Jan-18 09:29 34.319613 -119.618403 97 5001ft 164kts
08-Jan-18 09:30 34.314392 -119.566291 96 5002ft 151kts
08-Jan-18 09:31 34.309347 -119.516128 96 5003ft 149kts
08-Jan-18 09:32 34.298496 -119.467655 105 5004ft 149kts
08-Jan-18 09:33 34.287409 -119.419187 105 5003ft 148kts
08-Jan-18 09:34 34.276455 -119.371366 105 5003ft 146kts
08-Jan-18 09:35 34.267501 -119.332350 105 5003ft 143kts
08-Jan-18 09:36 34.255091 -119.278372 105 5003ft 142kts
08-Jan-18 09:37 34.246235 -119.239923 105 5004ft 142kts
08-Jan-18 09:38 34.234044 -119.187094 105 5004ft 142kts
08-Jan-18 09:39 34.223397 -119.141047 105 5004ft 142kts
08-Jan-18 09:40 34.214501 -119.102641 105 5004ft 142kts
08-Jan-18 09:41 34.213337 -119.055199 88 5004ft 142kts
08-Jan-18 09:42 34.214295 -119.007396 88 5004ft 142kts
08-Jan-18 09:43 34.215186 -118.962576 88 5004ft 142kts
08-Jan-18 09:44 34.215774 -118.932509 88 5004ft 142kts
08-Jan-18 09:45 34.216696 -118.884674 88 5004ft 142kts
08-Jan-18 09:46 34.217601 -118.836706 88 4994ft 142kts
08-Jan-18 09:47 34.218485 -118.788841 88 4994ft 142kts
08-Jan-18 09:48 34.219351 -118.740982 88 4994ft 142kts
08-Jan-18 09:49 34.220199 -118.693138 88 4995ft 143kts
08-Jan-18 09:50 34.221031 -118.645076 88 4995ft 143kts
08-Jan-18 09:51 34.221848 -118.596809 88 4994ft 143kts
08-Jan-18 09:52 34.222642 -118.548792 88 4994ft 143kts
08-Jan-18 09:53 34.223420 -118.500577 88 4994ft 143kts
08-Jan-18 09:54 34.212382 -118.454999 110 4995ft 143kts
08-Jan-18 09:55 34.198665 -118.409771 110 4994ft 143kts
08-Jan-18 09:56 34.184939 -118.364524 110 4994ft 143kts
08-Jan-18 09:57 34.171188 -118.319261 110 4994ft 143kts
08-Jan-18 09:58 34.157462 -118.274143 110 4994ft 143kts
08-Jan-18 09:59 34.143685 -118.228935 110 4994ft 143kts
08-Jan-18 10:00 34.129881 -118.183700 110 4994ft 143kts
08-Jan-18 10:01 34.116099 -118.138611 110 4994ft 143kts
08-Jan-18 10:02 34.102264 -118.093417 110 4994ft 143kts
08-Jan-18 10:03 34.088439 -118.048324 110 4994ft 143kts
08-Jan-18 10:04 34.074568 -118.003145 110 4994ft 143kts
08-Jan-18 10:05 34.060667 -117.957942 110 4994ft 143kts
08-Jan-18 10:06 34.046791 -117.912889 110 4994ft 143kts
08-Jan-18 10:07 34.033012 -117.868214 110 4995ft 143kts
08-Jan-18 10:08 34.019076 -117.823103 110 4995ft 143kts
08-Jan-18 10:09 33.998199 -117.786067 176 5000ft 141kts
08-Jan-18 10:10 33.958651 -117.784630 179 4995ft 143kts
08-Jan-18 10:11 33.918694 -117.783756 179 4995ft 143kts
08-Jan-18 10:12 33.876637 -117.782877 179 4584ft 158kts
08-Jan-18 10:13 33.837543 -117.764144 161 4045ft 155kts
08-Jan-18 10:14 33.804692 -117.787012 206 3448ft 139kts
08-Jan-18 10:15 33.771845 -117.807799 208 2977ft 119kts
08-Jan-18 10:16 33.745482 -117.824550 207 2420ft 101kts
08-Jan-18 10:17 33.718867 -117.841444 207 1663ft 137kts
08-Jan-18 10:18 33.690492 -117.859459 206 216ft 104kts
08-Jan-18 10:19 33.674633 -117.868589 156 49ft 11kts
08-Jan-18 10:20 33.674409 -117.868468 151 49ft 4kts
08-Jan-18 10:21 33.672174 -117.867480 206 49ft 0kts
08-Jan-18 10:22 33.672174 -117.867480 206 49ft 0kts
08-Jan-18 10:23 33.672174 -117.867480 206 49ft 0kts
08-Jan-18 10:24 33.672174 -117.867480 206 49ft 0kts
08-Jan-18 10:25 33.672174 -117.867480 206 49ft 0kts
08-Jan-18 10:26 33.672174 -117.867480 206 49ft 0kts
08-Jan-18 10:27 33.672174 -117.867480 206 49ft 0kts
08-Jan-18 10:28 33.672174 -117.867480 206 49ft 0kts

Navigation Log

Ident Type
1. KSBA Airport
2. KWANG Fix
3. CMA Navaid
4. VNY Navaid
5. DARTS Fix
6. PURMS Fix
7. ELMOO Fix
8. ITSME Fix
9. PIRRO Fix
10. ADAMM Fix
11. BAYJY Fix
12. PRADO Fix
13. POXKU Fix
14. OLLIE Fix
15. AHEIM Fix
16. SLI Navaid
17. KSNA Airport